createdAt,value
2023-02-11T00:01:47.562Z,48.10
2023-02-11T00:04:14.038Z,49.90
2023-02-11T00:06:40.540Z,51.38
2023-02-11T00:09:07.170Z,50.35
2023-02-11T00:11:33.802Z,49.80
2023-02-11T00:14:02.707Z,50.30
2023-02-11T00:16:29.637Z,50.13
2023-02-11T00:18:56.160Z,49.45
2023-02-11T00:21:24.777Z,48.53
2023-02-11T00:23:51.755Z,49.33
2023-02-11T00:26:22.278Z,50.47
2023-02-11T00:28:49.981Z,50.83
2023-02-11T00:31:17.718Z,48.25
2023-02-11T00:33:44.872Z,49.50
2023-02-11T00:36:14.578Z,49.65
2023-02-11T00:38:43.485Z,49.92
2023-02-11T00:41:10.275Z,50.65
2023-02-11T00:43:36.679Z,50.80
2023-02-11T00:46:03.384Z,52.42
2023-02-11T00:48:29.884Z,51.70
2023-02-11T00:50:56.448Z,51.78
2023-02-11T00:53:22.914Z,50.78
2023-02-11T00:55:49.623Z,51.13
2023-02-11T00:58:16.198Z,52.22
2023-02-11T01:00:42.637Z,52.08
2023-02-11T01:03:09.107Z,52.30
2023-02-11T01:05:35.645Z,49.78
2023-02-11T01:08:02.919Z,49.45
2023-02-11T01:10:29.304Z,50.95
2023-02-11T01:12:55.732Z,50.30
2023-02-11T01:15:22.400Z,50.72
2023-02-11T01:17:48.983Z,49.80
2023-02-11T01:20:18.321Z,49.33
2023-02-11T01:22:44.840Z,49.13
2023-02-11T01:25:11.544Z,50.72
2023-02-11T01:27:38.080Z,50.45
2023-02-11T01:30:06.490Z,50.08
2023-02-11T01:32:33.463Z,50.00
2023-02-11T01:34:59.853Z,50.78
2023-02-11T01:37:26.553Z,50.53
2023-02-11T01:39:53.021Z,51.05
2023-02-11T01:42:21.257Z,50.70
2023-02-11T01:44:52.925Z,47.78
2023-02-11T01:47:20.320Z,49.17
2023-02-11T01:49:53.147Z,50.92
2023-02-11T01:52:28.589Z,50.08
2023-02-11T01:55:23.387Z,50.17
2023-02-11T01:57:52.958Z,49.60
2023-02-11T02:00:25.101Z,48.00
2023-02-11T02:03:00.327Z,49.35
2023-02-11T02:05:47.588Z,49.22
2023-02-11T02:08:34.251Z,51.70
2023-02-11T02:11:01.088Z,51.25
2023-02-11T02:13:29.319Z,51.33
2023-02-11T02:15:59.955Z,52.08
2023-02-11T02:18:45.198Z,52.70
2023-02-11T02:21:20.735Z,53.67
2023-02-11T02:24:02.289Z,50.78
2023-02-11T02:26:54.185Z,53.70
2023-02-11T02:29:39.411Z,56.42
2023-02-11T02:36:12.021Z,54.10
2023-02-11T02:38:44.196Z,53.80
2023-02-11T02:41:13.804Z,55.00
2023-02-11T02:43:44.177Z,55.60
2023-02-11T02:46:12.609Z,54.63
2023-02-11T02:48:39.213Z,56.08
2023-02-11T02:51:42.621Z,55.67
2023-02-11T02:54:27.758Z,53.63
2023-02-11T02:57:15.781Z,56.90
2023-02-11T02:59:48.107Z,57.63
2023-02-11T03:02:30.396Z,58.03
2023-02-11T03:05:08.291Z,57.40
2023-02-11T03:07:48.034Z,58.55
2023-02-11T03:10:18.578Z,57.95
2023-02-11T03:12:46.175Z,59.58
2023-02-11T03:15:13.136Z,57.83
2023-02-11T03:17:43.149Z,62.13
2023-02-11T03:20:11.406Z,61.10
2023-02-11T03:22:48.357Z,59.13
2023-02-11T03:25:15.362Z,61.42
2023-02-11T03:27:47.678Z,61.03
2023-02-11T03:30:22.373Z,60.25
2023-02-11T03:33:01.222Z,61.58
2023-02-11T03:35:33.265Z,62.58
2023-02-11T03:38:00.609Z,64.68
2023-02-11T03:40:29.643Z,63.90
2023-02-11T03:43:13.279Z,62.45
2023-02-11T03:45:39.991Z,61.67
2023-02-11T03:48:15.200Z,63.20
2023-02-11T03:50:42.396Z,62.35
2023-02-11T03:53:09.434Z,61.35
2023-02-11T03:55:38.813Z,61.15
2023-02-11T03:58:05.436Z,59.40
2023-02-11T04:00:36.775Z,59.58
2023-02-11T04:03:04.525Z,61.13
2023-02-11T04:05:31.106Z,58.33
2023-02-11T04:07:57.776Z,60.17
2023-02-11T04:10:24.410Z,61.22
2023-02-11T04:12:51.020Z,60.90
2023-02-11T04:15:17.674Z,60.55
2023-02-11T04:17:44.243Z,59.47
2023-02-11T04:20:11.496Z,62.10
2023-02-11T04:22:38.084Z,61.40
2023-02-11T04:25:05.402Z,61.90
2023-02-11T04:27:31.876Z,62.03
2023-02-11T04:29:58.317Z,62.63
2023-02-11T04:32:24.782Z,60.42
2023-02-11T04:34:51.848Z,62.58
2023-02-11T04:37:18.382Z,60.25
2023-02-11T04:39:44.852Z,61.47
2023-02-11T04:42:11.271Z,60.58
2023-02-11T04:44:37.943Z,59.35
2023-02-11T04:47:04.428Z,59.47
2023-02-11T04:49:30.830Z,59.67
2023-02-11T04:51:57.268Z,59.17
2023-02-11T04:54:23.711Z,57.67
2023-02-11T04:56:51.029Z,57.22
2023-02-11T04:59:17.509Z,56.53
2023-02-11T05:01:43.986Z,56.70
2023-02-11T05:04:10.430Z,54.55
2023-02-11T05:06:39.423Z,54.17
2023-02-11T05:09:06.182Z,53.22
2023-02-11T05:11:32.834Z,52.88
2023-02-11T05:13:59.281Z,52.85
2023-02-11T05:16:25.801Z,51.03
2023-02-11T05:18:53.618Z,49.08
2023-02-11T05:21:20.494Z,50.45
2023-02-11T05:23:47.204Z,49.00
2023-02-11T05:26:14.266Z,47.42
2023-02-11T05:28:41.209Z,49.00
2023-02-11T05:31:07.824Z,46.15
2023-02-11T05:33:34.294Z,46.13
2023-02-11T05:36:02.697Z,46.70
2023-02-11T05:38:29.392Z,46.80
2023-02-11T05:40:57.067Z,46.78
2023-02-11T05:43:23.630Z,46.88
2023-02-11T05:45:50.641Z,45.90
2023-02-11T05:48:17.791Z,42.95
2023-02-11T05:50:44.536Z,43.45
2023-02-11T05:53:11.006Z,43.80
2023-02-11T05:55:37.686Z,43.25
2023-02-11T05:58:06.381Z,43.83
2023-02-11T06:00:32.792Z,46.22
2023-02-11T06:02:59.333Z,44.58
2023-02-11T06:05:25.956Z,45.08
2023-02-11T06:07:52.437Z,43.15
2023-02-11T06:10:18.920Z,43.22
2023-02-11T06:12:45.363Z,42.35
2023-02-11T06:15:11.838Z,44.58
2023-02-11T06:17:38.330Z,43.03
2023-02-11T06:20:07.130Z,45.75
2023-02-11T06:22:34.924Z,45.10
2023-02-11T06:25:02.375Z,45.08
2023-02-11T06:27:29.650Z,44.35
2023-02-11T06:29:56.154Z,44.13
2023-02-11T06:32:42.207Z,45.55
2023-02-11T06:35:11.467Z,43.50
2023-02-11T06:37:38.703Z,45.03
2023-02-11T06:40:05.463Z,44.72
2023-02-11T06:42:31.896Z,43.53
2023-02-11T06:44:58.331Z,43.95
2023-02-11T06:47:25.025Z,43.28
2023-02-11T06:49:51.615Z,45.13
2023-02-11T06:52:18.190Z,45.95
2023-02-11T06:54:44.643Z,44.83
2023-02-11T06:57:11.146Z,45.88
2023-02-11T06:59:37.664Z,45.10
2023-02-11T07:02:04.204Z,45.72
2023-02-11T07:04:30.615Z,46.42
2023-02-11T07:06:57.043Z,44.78
2023-02-11T07:09:23.501Z,46.78
2023-02-11T07:11:49.916Z,46.38
2023-02-11T07:14:16.545Z,46.67
2023-02-11T07:16:43.031Z,45.72
2023-02-11T07:19:09.426Z,47.35
2023-02-11T07:21:35.970Z,45.55
2023-02-11T07:24:02.368Z,48.70
2023-02-11T07:26:31.616Z,49.15
2023-02-11T07:28:58.330Z,48.13
2023-02-11T07:31:26.898Z,48.25
2023-02-11T07:33:55.569Z,45.83
2023-02-11T07:36:22.541Z,46.80
2023-02-11T07:38:49.226Z,47.97
2023-02-11T07:41:18.635Z,47.90
2023-02-11T07:43:45.556Z,49.72
2023-02-11T07:46:18.645Z,47.67
2023-02-11T07:48:45.276Z,47.85
2023-02-11T07:51:25.457Z,48.58
2023-02-11T07:53:52.367Z,47.92
2023-02-11T07:56:19.869Z,49.05
2023-02-11T07:58:46.545Z,47.17
2023-02-11T08:01:16.275Z,48.92
2023-02-11T08:03:43.042Z,48.20
2023-02-11T08:06:14.970Z,48.45
2023-02-11T08:08:41.710Z,48.90
2023-02-11T08:11:10.442Z,49.15
2023-02-11T08:13:37.381Z,49.08
2023-02-11T08:16:04.517Z,50.72
2023-02-11T08:18:31.679Z,50.15
2023-02-11T08:21:04.973Z,48.92
2023-02-11T08:23:31.517Z,49.45
2023-02-11T08:26:08.749Z,48.55
2023-02-11T08:28:36.822Z,51.50
2023-02-11T08:31:07.651Z,50.15
2023-02-11T08:33:34.516Z,52.08
2023-02-11T08:36:01.284Z,52.15
2023-02-11T08:38:27.703Z,49.13
2023-02-11T08:40:54.235Z,51.05
2023-02-11T08:43:20.693Z,52.17
2023-02-11T08:45:47.218Z,51.45
2023-02-11T08:48:13.865Z,50.83
2023-02-11T08:50:40.353Z,52.97
2023-02-11T08:53:06.942Z,51.53
2023-02-11T08:55:33.417Z,52.22
2023-02-11T08:57:59.891Z,51.28
2023-02-11T09:00:26.275Z,49.85
2023-02-11T09:02:52.714Z,51.67
2023-02-11T09:05:19.171Z,52.20
2023-02-11T09:07:45.598Z,52.13
2023-02-11T09:10:12.089Z,50.95
2023-02-11T09:12:38.507Z,52.58
2023-02-11T09:15:05.166Z,52.35
2023-02-11T09:17:31.588Z,54.00
2023-02-11T09:19:58.000Z,52.85
2023-02-11T09:22:24.446Z,52.70
2023-02-11T09:24:50.903Z,51.38
2023-02-11T09:27:17.367Z,53.47
2023-02-11T09:29:43.741Z,52.95
2023-02-11T09:32:10.367Z,53.63
2023-02-11T09:34:36.846Z,53.75
2023-02-11T09:37:03.259Z,53.92
2023-02-11T09:39:29.904Z,51.90
2023-02-11T09:42:32.142Z,50.97
2023-02-11T09:45:00.644Z,52.30
2023-02-11T09:47:30.593Z,51.15
2023-02-11T09:50:11.480Z,50.38
2023-02-11T09:52:49.165Z,51.13
2023-02-11T09:55:29.107Z,49.67
2023-02-11T09:57:56.389Z,51.45
2023-02-11T10:00:27.966Z,53.28
2023-02-11T10:03:15.510Z,53.73
2023-02-11T10:06:05.739Z,53.72
2023-02-11T10:08:42.764Z,53.90
2023-02-11T10:11:26.161Z,53.33
2023-02-11T10:14:04.582Z,53.85
2023-02-11T10:16:47.784Z,54.88
2023-02-11T10:19:39.017Z,54.47
2023-02-11T10:22:50.081Z,53.83
2023-02-11T10:25:28.810Z,54.45
2023-02-11T10:27:57.338Z,55.60
2023-02-11T10:30:29.330Z,56.47
2023-02-11T10:33:00.971Z,44.97
2023-02-11T10:35:27.574Z,58.07
2023-02-11T10:37:55.769Z,58.15
2023-02-11T10:40:25.721Z,57.65
2023-02-11T10:42:55.775Z,58.90
2023-02-11T10:45:26.234Z,58.22
2023-02-11T10:47:52.945Z,60.15
2023-02-11T10:50:22.398Z,60.50
2023-02-11T10:52:48.929Z,59.88
2023-02-11T10:55:20.786Z,60.42
2023-02-11T10:57:56.680Z,60.22
2023-02-11T11:00:39.038Z,59.75
2023-02-11T11:03:17.696Z,60.45
2023-02-11T11:05:50.284Z,60.15
2023-02-11T11:08:17.180Z,61.28
2023-02-11T11:10:49.367Z,61.00
2023-02-11T11:13:33.693Z,58.65
2023-02-11T11:16:12.262Z,56.72
2023-02-11T11:18:39.999Z,59.25
2023-02-11T11:21:21.964Z,57.28
2023-02-11T11:23:59.440Z,55.72
2023-02-11T11:26:28.542Z,53.13
2023-02-11T11:28:58.213Z,55.40
2023-02-11T11:31:28.876Z,54.25
2023-02-11T11:33:58.325Z,54.78
2023-02-11T11:36:33.802Z,52.92
2023-02-11T11:39:04.137Z,50.83
2023-02-11T11:41:34.753Z,49.00
2023-02-11T11:44:21.604Z,48.65
2023-02-11T11:46:49.597Z,46.28
2023-02-11T11:49:27.755Z,43.95
2023-02-11T11:52:18.671Z,43.40
2023-02-11T11:54:52.055Z,46.30
2023-02-11T11:57:22.395Z,44.00
2023-02-11T11:59:48.937Z,43.38
2023-02-11T12:02:38.673Z,42.47
2023-02-11T12:05:24.177Z,41.00
2023-02-11T12:08:12.902Z,42.28
2023-02-11T12:10:56.964Z,40.45
2023-02-11T12:13:26.753Z,38.80
2023-02-11T12:16:07.701Z,38.20
2023-02-11T12:19:12.938Z,38.53
2023-02-11T12:22:02.883Z,40.10
2023-02-11T12:24:53.873Z,39.60
2023-02-11T12:27:23.772Z,39.22
2023-02-11T12:30:16.733Z,39.25
2023-02-11T12:35:43.230Z,39.95
2023-02-11T12:38:39.702Z,40.00
2023-02-11T12:42:06.023Z,40.53
2023-02-11T12:45:04.487Z,40.15
2023-02-11T12:48:04.671Z,41.35
2023-02-11T12:50:41.276Z,40.80
2023-02-11T12:53:17.896Z,41.63
2023-02-11T12:55:46.922Z,41.47
2023-02-11T12:58:19.987Z,41.08
2023-02-11T13:00:51.904Z,41.63
2023-02-11T13:03:27.281Z,40.92
2023-02-11T13:06:04.055Z,40.78
2023-02-11T13:08:33.556Z,41.53
2023-02-11T13:11:03.699Z,40.65
2023-02-11T13:13:37.790Z,40.97
2023-02-11T13:16:13.585Z,40.55
2023-02-11T13:18:49.317Z,41.13
2023-02-11T13:21:15.817Z,40.80
2023-02-11T13:24:00.045Z,40.35
2023-02-11T13:26:58.090Z,41.20
2023-02-11T13:30:02.434Z,39.97
2023-02-11T13:32:56.614Z,39.72
2023-02-11T13:35:29.745Z,39.55
2023-02-11T13:37:57.243Z,40.00
2023-02-11T13:40:26.633Z,39.33
2023-02-11T13:42:55.026Z,38.63
2023-02-11T13:45:28.837Z,39.13
2023-02-11T13:47:58.274Z,39.33
2023-02-11T13:50:25.798Z,39.20
2023-02-11T13:53:03.225Z,39.80
2023-02-11T13:55:30.520Z,39.25
2023-02-11T13:58:05.912Z,39.25
2023-02-11T14:00:35.344Z,39.25
2023-02-11T14:03:29.680Z,39.35
2023-02-11T14:06:42.475Z,38.45
2023-02-11T14:09:09.321Z,38.85
2023-02-11T14:11:46.438Z,37.60
2023-02-11T14:14:22.242Z,38.13
2023-02-11T14:16:58.288Z,42.22
2023-02-11T14:19:34.786Z,52.85
2023-02-11T14:22:16.788Z,43.45
2023-02-11T14:24:56.180Z,41.22
2023-02-11T14:27:27.821Z,54.92
2023-02-11T14:30:02.829Z,41.97
2023-02-11T14:33:08.311Z,43.47
2023-02-11T14:35:47.388Z,38.88
2023-02-11T14:38:36.196Z,44.25
2023-02-11T14:41:32.452Z,40.05
2023-02-11T14:44:02.251Z,40.15
2023-02-11T14:46:33.440Z,47.70
2023-02-11T14:49:02.378Z,46.40
2023-02-11T14:51:36.397Z,46.28
2023-02-11T14:54:23.599Z,40.05
2023-02-11T14:57:19.992Z,43.13
2023-02-11T14:59:59.155Z,38.90
2023-02-11T15:02:30.518Z,38.50
2023-02-11T15:05:18.101Z,39.55
2023-02-11T15:07:46.763Z,39.33
2023-02-11T15:10:29.583Z,39.65
2023-02-11T15:12:56.803Z,39.50
2023-02-11T15:15:23.727Z,41.15
2023-02-11T15:17:51.441Z,41.15
2023-02-11T15:20:27.164Z,38.53
2023-02-11T15:23:00.678Z,39.58
2023-02-11T15:25:29.086Z,38.38
2023-02-11T15:27:57.886Z,38.78
2023-02-11T15:30:25.492Z,39.15
2023-02-11T15:33:01.214Z,41.08
2023-02-11T15:35:35.580Z,41.15
2023-02-11T15:38:03.756Z,39.38
2023-02-11T15:40:33.184Z,39.15
2023-02-11T15:43:09.277Z,37.15
2023-02-11T15:46:05.835Z,38.72
2023-02-11T15:48:38.254Z,39.60
2023-02-11T15:53:43.076Z,36.78
2023-02-11T15:56:19.160Z,37.95
2023-02-11T15:58:47.623Z,37.78
2023-02-11T16:01:14.136Z,39.05
2023-02-11T16:03:41.737Z,37.63
2023-02-11T16:06:29.510Z,39.03
2023-02-11T16:09:23.120Z,36.22
2023-02-11T16:11:49.598Z,36.97
2023-02-11T16:14:29.660Z,37.17
2023-02-11T16:17:12.479Z,37.17
2023-02-11T16:19:47.368Z,37.35
2023-02-11T16:22:25.324Z,35.83
2023-02-11T16:24:53.922Z,36.75
2023-02-11T16:27:23.400Z,35.67
2023-02-11T16:29:50.851Z,36.95
2023-02-11T16:32:22.646Z,36.67
2023-02-11T16:34:49.573Z,26.80
2023-02-11T16:37:16.549Z,38.05
2023-02-11T16:39:42.990Z,39.67
2023-02-11T16:42:11.110Z,38.13
2023-02-11T16:44:37.596Z,37.42
2023-02-11T16:47:07.199Z,38.80
2023-02-11T16:49:38.323Z,37.88
2023-02-11T16:52:12.271Z,38.95
2023-02-11T16:54:38.693Z,37.90
2023-02-11T16:57:11.395Z,39.00
2023-02-11T16:59:37.785Z,37.65
2023-02-11T17:02:04.225Z,38.95
2023-02-11T17:04:33.470Z,38.72
2023-02-11T17:07:00.033Z,37.10
2023-02-11T17:09:30.362Z,39.17
2023-02-11T17:11:57.330Z,40.95
2023-02-11T17:14:23.740Z,39.90
2023-02-11T17:16:50.164Z,38.47
2023-02-11T17:19:19.593Z,38.45
2023-02-11T17:21:47.236Z,39.45
2023-02-11T17:24:14.959Z,38.70
2023-02-11T17:26:42.090Z,38.70
2023-02-11T17:29:10.605Z,39.22
2023-02-11T17:31:37.219Z,40.10
2023-02-11T17:34:03.626Z,39.17
2023-02-11T17:36:33.320Z,38.80
2023-02-11T17:41:36.882Z,39.20
2023-02-11T17:44:03.695Z,39.08
2023-02-11T17:46:30.173Z,38.65
2023-02-11T17:48:58.761Z,37.33
2023-02-11T17:57:46.811Z,37.67
2023-02-11T18:04:08.404Z,41.00
2023-02-11T18:06:35.182Z,41.10
2023-02-11T18:09:04.844Z,40.05
2023-02-11T18:11:32.699Z,37.38
2023-02-11T18:13:59.687Z,36.63
2023-02-11T18:16:28.569Z,38.25
2023-02-11T18:18:56.125Z,37.30
2023-02-11T18:21:23.120Z,35.75
2023-02-11T18:23:50.028Z,38.22
2023-02-11T18:26:18.333Z,36.75
2023-02-11T18:28:46.059Z,35.78
2023-02-11T18:31:13.678Z,37.20
2023-02-11T18:33:43.265Z,36.20
2023-02-11T18:36:14.472Z,36.08
2023-02-11T18:38:41.005Z,37.55
2023-02-11T18:41:08.163Z,36.72
2023-02-11T18:43:34.866Z,37.97
2023-02-11T18:46:02.282Z,39.28
2023-02-11T18:48:28.743Z,39.20
2023-02-11T18:50:55.666Z,37.47
2023-02-11T18:53:22.686Z,38.78
2023-02-11T18:55:49.390Z,36.65
2023-02-11T18:58:15.884Z,36.50
2023-02-11T19:00:44.817Z,35.80
2023-02-11T19:03:11.237Z,36.50
2023-02-11T19:05:45.844Z,35.95
2023-02-11T19:08:13.258Z,35.53
2023-02-11T19:10:44.776Z,35.78
2023-02-11T19:13:11.556Z,35.97
2023-02-11T19:15:45.256Z,35.05
2023-02-11T19:18:13.540Z,34.97
2023-02-11T19:20:41.341Z,35.58
2023-02-11T19:23:07.758Z,34.50
2023-02-11T19:25:34.530Z,36.83
2023-02-11T19:28:01.059Z,35.38
2023-02-11T19:30:27.707Z,37.33
2023-02-11T19:32:56.982Z,35.95
2023-02-11T19:35:24.460Z,35.45
2023-02-11T19:37:50.881Z,36.53
2023-02-11T19:40:17.559Z,37.38
2023-02-11T19:42:44.024Z,37.38
2023-02-11T19:45:10.600Z,35.63
2023-02-11T19:47:37.047Z,36.97
2023-02-11T19:50:05.346Z,36.58
2023-02-11T19:52:31.847Z,36.33
2023-02-11T19:54:58.241Z,35.88
2023-02-11T19:57:24.691Z,36.58
2023-02-11T19:59:53.145Z,36.08
2023-02-11T20:02:19.736Z,37.05
2023-02-11T20:04:46.296Z,37.08
2023-02-11T20:07:12.655Z,37.35
2023-02-11T20:09:40.875Z,36.78
2023-02-11T20:12:07.267Z,38.65
2023-02-11T20:14:36.029Z,37.95
2023-02-11T20:17:02.455Z,36.08
2023-02-11T20:19:30.496Z,37.28
2023-02-11T20:21:56.935Z,35.33
2023-02-11T20:24:24.484Z,36.08
2023-02-11T20:26:55.147Z,36.38
2023-02-11T20:29:21.967Z,35.63
2023-02-11T20:31:49.864Z,34.75
2023-02-11T20:34:17.579Z,35.22
2023-02-11T20:36:51.248Z,35.55
2023-02-11T20:39:18.586Z,36.25
2023-02-11T20:41:46.038Z,36.45
2023-02-11T20:44:13.021Z,37.85
2023-02-11T20:46:42.310Z,37.53
2023-02-11T20:49:12.747Z,37.42
2023-02-11T20:51:39.378Z,34.75
2023-02-11T20:54:06.369Z,35.25
2023-02-11T20:56:35.169Z,36.47
2023-02-11T20:59:02.319Z,36.28
2023-02-11T21:01:34.468Z,35.13
2023-02-11T21:04:12.751Z,38.00
2023-02-11T21:06:47.619Z,35.13
2023-02-11T21:09:16.213Z,35.85
2023-02-11T21:11:43.292Z,35.88
2023-02-11T21:14:10.286Z,34.17
2023-02-11T21:16:36.839Z,35.53
2023-02-11T21:19:03.254Z,35.00
2023-02-11T21:21:30.017Z,33.97
2023-02-11T21:23:56.465Z,33.95
2023-02-11T21:26:22.891Z,34.03
2023-02-11T21:28:49.966Z,34.65
2023-02-11T21:31:24.427Z,33.67
2023-02-11T21:33:51.231Z,33.58
2023-02-11T21:36:17.766Z,33.92
2023-02-11T21:38:44.254Z,32.85
2023-02-11T21:41:10.654Z,32.30
2023-02-11T21:43:37.044Z,31.55
2023-02-11T21:46:08.807Z,29.52
2023-02-11T21:48:35.264Z,27.15
2023-02-11T21:51:05.570Z,25.13
2023-02-11T21:53:32.020Z,25.30
2023-02-11T21:56:09.434Z,24.23
2023-02-11T21:58:35.884Z,22.27
2023-02-11T22:01:10.106Z,24.25
2023-02-11T22:03:36.540Z,21.55
2023-02-11T22:06:07.189Z,22.13
2023-02-11T22:08:33.563Z,21.13
2023-02-11T22:11:04.741Z,19.75
2023-02-11T22:13:31.370Z,19.55
2023-02-11T22:15:59.838Z,18.60
2023-02-11T22:18:26.423Z,17.70
2023-02-11T22:21:03.137Z,18.20
2023-02-11T22:23:30.026Z,17.90
2023-02-11T22:25:56.990Z,16.42
2023-02-11T22:28:25.327Z,16.77
2023-02-11T22:30:56.173Z,17.35
2023-02-11T22:33:26.315Z,17.55
2023-02-11T22:36:04.669Z,15.82
2023-02-11T22:38:31.760Z,17.25
2023-02-11T22:40:59.541Z,16.95
2023-02-11T22:43:27.360Z,16.73
2023-02-11T22:45:56.358Z,17.58
2023-02-11T22:48:23.294Z,17.92
2023-02-11T22:50:49.759Z,17.63
2023-02-11T22:53:16.187Z,17.33
2023-02-11T22:55:42.572Z,17.67
2023-02-11T22:58:08.941Z,18.70
2023-02-11T23:00:38.755Z,17.50
2023-02-11T23:03:05.943Z,17.90
2023-02-11T23:05:40.276Z,17.70
2023-02-11T23:08:08.205Z,18.67
2023-02-11T23:10:36.298Z,18.27
2023-02-11T23:13:03.816Z,17.30
2023-02-11T23:15:30.820Z,17.00
2023-02-11T23:17:57.437Z,17.35
2023-02-11T23:20:23.897Z,15.48
2023-02-11T23:22:50.274Z,16.00
2023-02-11T23:25:16.652Z,14.60
2023-02-11T23:27:43.047Z,13.00
2023-02-11T23:30:10.112Z,13.07
2023-02-11T23:32:38.761Z,13.73
2023-02-11T23:35:07.720Z,13.30
2023-02-11T23:37:34.133Z,12.95
2023-02-11T23:40:00.620Z,12.70
2023-02-11T23:42:27.033Z,13.00
2023-02-11T23:44:53.471Z,12.38
2023-02-11T23:47:19.854Z,12.07
2023-02-11T23:49:46.225Z,11.63
2023-02-11T23:52:12.600Z,12.77
2023-02-11T23:54:38.973Z,13.60
2023-02-11T23:57:05.354Z,14.82
2023-02-11T23:59:31.750Z,16.65
